Penetanguishene, Canada
Current Conditions -  °F | °C
As of 1:11 PM on Friday 21 Nov 2014 (Local Time) from CYQA Reporting Station
Light Snow Light Snow  
Wind Chill:   Ceiling: 1700
Heat Index: 18°   Visibility: 1.2mi
Dew Point: 14°   Wind: 6mph
Humidity: 86%   Direction: 190°S
Pressure: 30.29"   Gusts: NA
Location:  44.77°N, 79.93°W
Report Text: CYQA 211811Z AUTO 19005KT 1 1/4SM -SN OVC017 M08/M10 A3029 RMK VIS VRB 3/4-2 1/2 SLP278
Loading
Personal Weather Stations






























Interactive Weather Map New forecast layout! Learn more

10-Day Weather Forecast

Advertisements
Track Severe Weather on mobile